Neponset, IL (61345)

8:17 AM CST on March 06, 2015 (GMT -0600)
Rockwell St. | Change Station
CLOSE
Current Station
Personal Weather Station
Location: Kewanee, IL
Elevation: 858 ft
Nearby Weather Stations

Elev 858 ft 41.24 °N, 89.93 °W | Updated 4 minutes ago

Clear
Clear
10.6 °F
Feels Like -3 °F
N
10.3
Wind Variable Wind from SSW

Today
High -- | Low -- °F
--% Chance of Precip.
Yesterday
High -- | Low -- °F
Precip. -- in
6:26 AM 5:55 PM
Full, 99% visible
Pressure 30.36 in
Visibility 10.0 miles
Clouds Clear
Windchill -3 °F
Dew Point 3 °F
Humidity 72%
Rainfall in
Snow Depth Not available.
UV 1 out of 12
Pollen .30 out of 12
Air Quality Not available.
Flu Activity Not available.
METAR KSQI 061355Z AUTO 18005KT 10SM CLR M12/M17 A3036 RMK AO1

More Conditions Fewer Conditions

Pressure 30.36 in
Visibility 10.0 miles
Clouds Clear
Windchill -3 °F
Dew Point 3 °F
Humidity 72%
Rainfall in
Snow Depth Not available.
UV 1 out of 12
Pollen .30 out of 12
Air Quality Not available.
Flu Activity Not available.
METAR KSQI 061355Z AUTO 18005KT 10SM CLR M12/M17 A3036 RMK AO1

More Conditions Fewer Conditions

10-Day Weather Forecast

Almanac

Astronomy

Mar. 06, 2015 Rise Set
Actual Time
Civil Twilight
Nautical Twilight
Astronomical Twilight
Moon
Length of Visible Light
Length of Day
Tomorrow will be .
, % of the Moon is Illuminated

Today's Extremes

State Highs State Lows

Community

WunderPhotos

Upload Photos

1,803,275 photos uploaded!

WunderBlogs® & News

Nearby

Air Quality

  Air Quality AQ Index Pollutant
Not available.

Snow Depth

Station Depth Elevation

Earthquake Activity

City Distance Mag. Time & Date
Minimum magnitude displayed is 2.5.

Coastal Water Temperatures

Place Temperature

Nearby Weather Stations